Greenville, SC

3:26 PM EST en Febrero 12, 2016 (GMT -0500)
APRSWXNET | | Change Station
CLOSE
Current Station
Estación meteorológica personal
Location: Greenville, SC
Altura: 961 ft
Estaciones meteorológicas cercanas

Alt 961 ft 34.84 °N, 82.40 °W | Updated 24 minutes ago

Nublado
Nublado
42 ° F
Sensación térmica 42 ° F
N
0
Viento Variable Viento desde NNO
Gusts 0.0 mph

Hoy
Alta -- | Baja -- ° F
--% Posibilidad de precipitaciones
Ayer
Alta -- | Baja -- ° F
Precip. -- pul
Presión 30.04 pul
Visibilidad 10.0 Millas
Nubes Nublado 9000 ft
Vientos helados 42 ° F
Punto de rocío 33 ° F
Humedad 70%
Precipitaciones pul
Espesor de la nieve No disponible.
7:18 AM 6:09 PM
Creciente, 23% visible
METAR KGMU 121953Z VRB03KT 10SM OVC090 06/M01 A3002 RMK AO2 SLP172 T00561011
Presión 30.04 pul
Visibilidad 10.0 Millas
Nubes Nublado 9000 ft
Vientos helados 42 ° F
Punto de rocío 33 ° F
Humedad 70%
Precipitaciones pul
Espesor de la nieve No disponible.
7:18 AM 6:09 PM
Creciente, 23% visible
METAR KGMU 121953Z VRB03KT 10SM OVC090 06/M01 A3002 RMK AO2 SLP172 T00561011

10-Day Weather Forecast

Almanac

Astronomía

Feb. 12, 2016 Salida Puesta
Hora real
Crepúsculo civil
Crepúsculo náutico
Crepúsculo astronómico
Luna
Horas de luz
Horas de luz
Tomorrow will be .
, % of the Moon is Illuminated

Extremos de hoy

Máximos del estado Bajos del estado

Community

WunderPhotos

Upload Photos

1,892,388 ¡fotos cargadas!

WunderBlog® & News

Nearby

Calidad del aire

  Calidad del aire Índice AQ Contaminante
Not available.

Grosos de nieve

Estación Profundido Altura

Actividad de terremotos

Ciudad Distance Mag. Tiempo y dato
Magnitud mínima muestra es 2,5.

Temperaturas de aguas costeras

Lugar Temperatura

Stations

Estaciones meteorológicas cercanas

Ubicación de la estación Temp. Vientos helados Punto de rocío Humedad Viento Precip. Alt Actualizado Tipo
                   

Watches & Warnings

There are currently no watches in effect.